createdAt,value
2022-11-24T00:00:49.945Z,3.15
2022-11-24T00:03:16.559Z,3.55
2022-11-24T00:05:43.309Z,2.97
2022-11-24T00:08:09.833Z,3.28
2022-11-24T00:10:36.268Z,3.97
2022-11-24T00:13:02.724Z,3.22
2022-11-24T00:15:29.199Z,3.15
2022-11-24T00:17:55.642Z,2.88
2022-11-24T00:20:22.091Z,3.45
2022-11-24T00:22:48.612Z,3.13
2022-11-24T00:25:15.211Z,2.70
2022-11-24T00:27:41.676Z,2.85
2022-11-24T00:30:09.809Z,3.42
2022-11-24T00:32:36.285Z,3.17
2022-11-24T00:35:02.810Z,2.72
2022-11-24T00:37:29.310Z,2.35
2022-11-24T00:39:55.812Z,2.67
2022-11-24T00:42:22.267Z,2.75
2022-11-24T00:44:48.696Z,3.35
2022-11-24T00:47:15.210Z,3.28
2022-11-24T00:49:41.692Z,2.83
2022-11-24T00:52:08.327Z,3.63
2022-11-24T00:54:35.151Z,3.25
2022-11-24T00:57:01.787Z,3.95
2022-11-24T00:59:28.278Z,3.53
2022-11-24T01:01:55.093Z,3.30
2022-11-24T01:04:21.935Z,3.28
2022-11-24T01:06:48.409Z,3.08
2022-11-24T01:09:14.897Z,3.13
2022-11-24T01:11:59.705Z,3.33
2022-11-24T01:14:26.190Z,3.72
2022-11-24T01:16:53.360Z,3.42
2022-11-24T01:19:20.340Z,3.17
2022-11-24T01:21:47.141Z,3.75
2022-11-24T01:24:14.071Z,3.33
2022-11-24T01:26:41.364Z,3.88
2022-11-24T01:29:09.352Z,3.70
2022-11-24T01:31:37.001Z,3.05
2022-11-24T01:34:03.918Z,3.38
2022-11-24T01:36:30.443Z,3.40
2022-11-24T01:38:56.875Z,3.20
2022-11-24T01:41:24.842Z,3.30
2022-11-24T01:43:53.242Z,3.30
2022-11-24T01:46:31.144Z,3.13
2022-11-24T01:49:13.216Z,3.60
2022-11-24T01:54:13.998Z,2.72
2022-11-24T01:56:43.931Z,3.28
2022-11-24T01:59:13.321Z,2.78
2022-11-24T02:01:40.225Z,2.42
2022-11-24T02:04:11.456Z,2.88
2022-11-24T02:06:40.799Z,2.95
2022-11-24T02:09:20.932Z,3.58
2022-11-24T02:11:47.642Z,2.97
2022-11-24T02:14:18.018Z,2.38
2022-11-24T02:16:49.077Z,2.40
2022-11-24T02:19:25.660Z,2.55
2022-11-24T02:21:52.131Z,2.17
2022-11-24T02:24:30.214Z,2.65
2022-11-24T02:26:56.759Z,2.60
2022-11-24T02:29:23.364Z,2.38
2022-11-24T02:31:55.013Z,2.38
2022-11-24T02:34:21.542Z,2.72
2022-11-24T02:36:48.008Z,2.35
2022-11-24T02:39:15.644Z,2.65
2022-11-24T02:41:46.471Z,2.10
2022-11-24T02:44:15.539Z,2.20
2022-11-24T02:46:42.114Z,2.30
2022-11-24T02:49:08.687Z,2.10
2022-11-24T02:51:35.172Z,2.25
2022-11-24T02:54:01.649Z,2.20
2022-11-24T02:56:28.114Z,3.30
2022-11-24T02:58:54.634Z,2.63
2022-11-24T03:01:21.139Z,2.17
2022-11-24T03:03:47.782Z,2.67
2022-11-24T03:06:14.324Z,2.15
2022-11-24T03:08:40.786Z,2.00
2022-11-24T03:11:07.229Z,2.20
2022-11-24T03:13:33.682Z,2.90
2022-11-24T03:16:00.256Z,2.92
2022-11-24T03:18:26.743Z,2.20
2022-11-24T03:20:53.204Z,2.15
2022-11-24T03:23:19.730Z,2.42
2022-11-24T03:25:46.576Z,2.20
2022-11-24T03:28:13.023Z,2.13
2022-11-24T03:30:39.462Z,2.22
2022-11-24T03:33:07.099Z,2.47
2022-11-24T03:35:33.586Z,2.55
2022-11-24T03:38:00.039Z,2.97
2022-11-24T03:40:26.600Z,2.30
2022-11-24T03:42:53.026Z,2.70
2022-11-24T03:48:07.359Z,2.30
2022-11-24T03:50:33.834Z,2.22
2022-11-24T03:53:00.288Z,2.55
2022-11-24T03:55:26.733Z,2.58
2022-11-24T03:57:53.199Z,2.03
2022-11-24T04:00:19.791Z,2.10
2022-11-24T04:02:48.083Z,2.47
2022-11-24T04:05:15.169Z,2.83
2022-11-24T04:07:41.946Z,2.42
2022-11-24T04:10:08.980Z,2.38
2022-11-24T04:12:44.539Z,2.65
2022-11-24T04:15:19.119Z,2.25
2022-11-24T04:17:47.155Z,2.20
2022-11-24T04:20:14.295Z,2.72
2022-11-24T04:22:40.876Z,2.50
2022-11-24T04:25:08.310Z,2.80
2022-11-24T04:27:36.547Z,2.45
2022-11-24T04:30:07.339Z,2.40
2022-11-24T04:32:33.774Z,2.50
2022-11-24T04:35:00.155Z,2.25
2022-11-24T04:37:26.529Z,3.08
2022-11-24T04:39:54.889Z,2.20
2022-11-24T04:42:21.549Z,2.95
2022-11-24T04:44:47.970Z,2.30
2022-11-24T04:47:21.057Z,2.42
2022-11-24T04:49:49.015Z,3.00
2022-11-24T04:52:16.756Z,2.15
2022-11-24T04:54:43.414Z,2.80
2022-11-24T04:57:16.548Z,2.65
2022-11-24T04:59:43.073Z,3.15
2022-11-24T05:02:10.399Z,2.88
2022-11-24T05:04:37.558Z,3.03
2022-11-24T05:07:04.176Z,2.75
2022-11-24T05:09:54.927Z,3.20
2022-11-24T05:12:17.052Z,2.55
2022-11-24T05:14:43.440Z,2.05
2022-11-24T05:17:09.864Z,2.65
2022-11-24T05:19:36.329Z,1.90
2022-11-24T05:22:02.951Z,1.85
2022-11-24T05:24:29.335Z,1.52
2022-11-24T05:26:55.755Z,1.50
2022-11-24T05:29:22.196Z,0.93
2022-11-24T05:31:48.646Z,1.42
2022-11-24T05:34:15.476Z,1.67
2022-11-24T05:36:54.247Z,1.38
2022-11-24T05:39:21.403Z,1.00
2022-11-24T05:41:47.859Z,1.35
2022-11-24T05:44:14.318Z,1.10
2022-11-24T05:46:40.852Z,1.30
2022-11-24T05:49:07.266Z,1.23
2022-11-24T05:51:34.488Z,1.10
2022-11-24T05:54:00.951Z,1.20
2022-11-24T05:56:27.348Z,1.08
2022-11-24T05:58:53.803Z,0.90
2022-11-24T06:01:20.343Z,1.00
2022-11-24T06:03:46.896Z,0.90
2022-11-24T06:06:13.976Z,1.00
2022-11-24T06:08:40.374Z,0.95
2022-11-24T06:11:18.556Z,0.90
2022-11-24T06:13:46.834Z,0.98
2022-11-24T06:16:13.401Z,1.58
2022-11-24T06:18:40.304Z,1.20
2022-11-24T06:21:11.594Z,1.52
2022-11-24T06:23:38.985Z,1.23
2022-11-24T06:26:05.889Z,1.20
2022-11-24T06:28:32.584Z,1.20
2022-11-24T06:31:02.970Z,1.42
2022-11-24T06:33:36.895Z,1.30
2022-11-24T06:36:06.154Z,1.30
2022-11-24T06:38:34.187Z,1.80
2022-11-24T06:41:02.537Z,1.50
2022-11-24T06:43:30.330Z,1.60
2022-11-24T06:45:57.376Z,1.80
2022-11-24T06:48:24.392Z,2.25
2022-11-24T06:50:51.608Z,1.98
2022-11-24T06:53:18.522Z,2.17
2022-11-24T06:55:46.362Z,3.13
2022-11-24T06:58:13.024Z,3.33
2022-11-24T07:00:39.673Z,3.95
2022-11-24T07:03:06.228Z,3.88
2022-11-24T07:05:32.829Z,3.78
2022-11-24T07:08:00.514Z,4.00
2022-11-24T07:10:27.206Z,4.35
2022-11-24T07:12:53.671Z,4.10
2022-11-24T07:15:20.146Z,4.50
2022-11-24T07:17:46.595Z,4.93
2022-11-24T07:20:12.989Z,5.15
2022-11-24T07:22:39.378Z,5.60
2022-11-24T07:25:07.396Z,6.03
2022-11-24T07:27:33.865Z,5.72
2022-11-24T07:30:00.298Z,6.47
2022-11-24T07:32:26.778Z,6.70
2022-11-24T07:34:53.205Z,5.93
2022-11-24T07:37:19.599Z,5.88
2022-11-24T07:39:46.158Z,5.78
2022-11-24T07:42:12.696Z,6.40
2022-11-24T07:44:40.575Z,5.38
2022-11-24T07:47:07.015Z,5.60
2022-11-24T07:49:33.643Z,5.80
2022-11-24T07:52:00.946Z,5.13
2022-11-24T07:54:27.492Z,5.13
2022-11-24T07:56:53.979Z,5.70
2022-11-24T07:59:20.476Z,5.63
2022-11-24T08:01:46.990Z,5.15
2022-11-24T08:04:13.556Z,4.97
2022-11-24T08:06:44.669Z,5.40
2022-11-24T08:09:13.626Z,5.35
2022-11-24T08:11:40.033Z,5.20
2022-11-24T08:14:06.547Z,5.45
2022-11-24T08:16:33.145Z,5.18
2022-11-24T08:18:59.728Z,5.13
2022-11-24T08:21:26.375Z,4.95
2022-11-24T08:23:56.956Z,4.80
2022-11-24T08:26:25.070Z,5.20
2022-11-24T08:28:57.516Z,5.43
2022-11-24T08:31:27.106Z,4.72
2022-11-24T08:33:55.821Z,4.93
2022-11-24T08:36:22.231Z,5.00
2022-11-24T08:38:49.677Z,5.22
2022-11-24T08:41:17.552Z,4.88
2022-11-24T08:43:44.771Z,4.50
2022-11-24T08:46:14.182Z,4.50
2022-11-24T08:48:41.585Z,5.00
2022-11-24T08:51:11.536Z,5.00
2022-11-24T08:53:38.846Z,4.60
2022-11-24T08:56:05.941Z,4.28
2022-11-24T08:58:32.897Z,4.80
2022-11-24T09:01:13.802Z,4.53
2022-11-24T09:03:46.328Z,4.93
2022-11-24T09:06:18.371Z,4.20
2022-11-24T09:08:44.855Z,4.60
2022-11-24T09:11:14.152Z,4.60
2022-11-24T09:13:41.305Z,4.43
2022-11-24T09:16:13.840Z,3.90
2022-11-24T09:18:40.984Z,3.80
2022-11-24T09:21:15.973Z,4.30
2022-11-24T09:23:43.437Z,4.32
2022-11-24T09:26:13.133Z,4.40
2022-11-24T09:28:40.819Z,3.83
2022-11-24T09:31:10.240Z,4.13
2022-11-24T09:33:38.025Z,3.50
2022-11-24T09:36:05.824Z,3.67
2022-11-24T09:38:33.009Z,3.92
2022-11-24T09:41:17.891Z,3.53
2022-11-24T09:44:03.256Z,3.92
2022-11-24T09:46:49.077Z,3.28
2022-11-24T09:49:24.154Z,2.63
2022-11-24T09:51:54.933Z,2.90
2022-11-24T09:54:28.643Z,2.47
2022-11-24T09:56:59.781Z,2.75
2022-11-24T09:59:27.486Z,3.10
2022-11-24T10:01:55.706Z,2.65
2022-11-24T10:04:27.444Z,2.55
2022-11-24T10:07:12.125Z,2.65
2022-11-24T10:09:53.162Z,2.45
2022-11-24T10:12:28.372Z,2.88
2022-11-24T10:15:01.527Z,2.35
2022-11-24T10:17:34.587Z,2.40
2022-11-24T10:20:21.712Z,2.70
2022-11-24T10:23:20.819Z,2.30
2022-11-24T10:26:00.748Z,2.53
2022-11-24T10:28:44.913Z,2.33
2022-11-24T10:31:24.064Z,2.58
2022-11-24T10:33:51.234Z,2.78
2022-11-24T10:36:29.886Z,2.53
2022-11-24T10:39:10.917Z,2.85
2022-11-24T10:42:15.792Z,2.03
2022-11-24T10:44:43.011Z,2.58
2022-11-24T10:47:22.502Z,2.40
2022-11-24T10:49:58.036Z,3.13
2022-11-24T10:52:25.595Z,2.50
2022-11-24T10:54:57.959Z,3.05
2022-11-24T10:57:53.650Z,2.00
2022-11-24T11:00:20.041Z,2.38
2022-11-24T11:02:48.861Z,3.42
2022-11-24T11:05:44.074Z,2.78
2022-11-24T11:08:17.202Z,2.78
2022-11-24T11:10:44.624Z,2.70
2022-11-24T11:13:31.204Z,3.00
2022-11-24T11:15:59.072Z,3.25
2022-11-24T11:18:31.920Z,2.85
2022-11-24T11:21:02.074Z,3.03
2022-11-24T11:23:32.270Z,3.00
2022-11-24T11:26:38.547Z,3.20
2022-11-24T11:35:02.664Z,3.00
2022-11-24T11:37:32.789Z,2.90
2022-11-24T11:40:00.273Z,2.80
2022-11-24T11:43:00.653Z,2.75
2022-11-24T11:45:27.831Z,3.22
2022-11-24T11:48:07.624Z,2.97
2022-11-24T11:51:21.129Z,3.40
2022-11-24T11:53:47.045Z,3.40
2022-11-24T11:56:13.975Z,3.08
2022-11-24T11:58:53.463Z,3.10
2022-11-24T12:01:56.932Z,2.47
2022-11-24T12:04:52.631Z,2.72
2022-11-24T12:07:41.732Z,2.58
2022-11-24T12:10:40.626Z,3.13
2022-11-24T12:13:16.038Z,3.08
2022-11-24T12:15:51.712Z,2.65
2022-11-24T12:18:59.140Z,2.70
2022-11-24T12:21:52.943Z,2.67
2022-11-24T12:24:35.398Z,3.53
2022-11-24T12:27:17.987Z,2.50
2022-11-24T12:30:10.622Z,2.70
2022-11-24T12:32:36.954Z,2.38
2022-11-24T12:35:29.455Z,2.85
2022-11-24T12:38:02.522Z,3.47
2022-11-24T12:40:51.356Z,2.67
2022-11-24T12:43:30.283Z,2.80
2022-11-24T12:46:15.569Z,2.70
2022-11-24T12:48:52.756Z,3.45
2022-11-24T12:51:25.356Z,2.80
2022-11-24T12:53:53.583Z,3.60
2022-11-24T12:56:29.128Z,3.47
2022-11-24T12:59:20.778Z,3.22
2022-11-24T13:01:56.991Z,3.17
2022-11-24T13:04:40.990Z,3.03
2022-11-24T13:07:12.324Z,2.72
2022-11-24T13:10:16.995Z,2.80
2022-11-24T13:13:06.004Z,2.90
2022-11-24T13:18:53.804Z,3.15
2022-11-24T13:21:31.357Z,2.57
2022-11-24T13:23:59.920Z,2.90
2022-11-24T13:26:41.491Z,2.38
2022-11-24T13:29:31.357Z,2.95
2022-11-24T13:32:00.780Z,2.50
2022-11-24T13:34:39.584Z,3.00
2022-11-24T13:37:33.912Z,2.08
2022-11-24T13:40:11.401Z,2.28
2022-11-24T13:42:56.351Z,2.75
2022-11-24T13:45:45.221Z,2.55
2022-11-24T13:48:21.177Z,2.80
2022-11-24T13:50:50.988Z,2.90
2022-11-24T13:53:45.507Z,2.33
2022-11-24T13:56:11.844Z,2.95
2022-11-24T13:58:40.381Z,2.58
2022-11-24T14:01:24.123Z,2.63
2022-11-24T14:04:28.499Z,3.67
2022-11-24T14:07:07.471Z,2.85
2022-11-24T14:09:44.800Z,2.85
2022-11-24T14:12:23.231Z,2.75
2022-11-24T14:14:52.459Z,3.00
2022-11-24T14:17:24.620Z,3.42
2022-11-24T14:20:00.065Z,3.13
2022-11-24T14:22:34.541Z,2.45
2022-11-24T14:25:02.515Z,3.10
2022-11-24T14:27:38.574Z,3.20
2022-11-24T14:30:18.762Z,4.13
2022-11-24T14:33:02.136Z,3.03
2022-11-24T14:35:30.338Z,2.88
2022-11-24T14:37:57.173Z,2.85
2022-11-24T14:40:41.672Z,2.88
2022-11-24T14:43:21.331Z,3.03
2022-11-24T14:45:53.766Z,2.50
2022-11-24T14:48:25.104Z,2.95
2022-11-24T14:50:52.435Z,3.40
2022-11-24T14:53:26.247Z,2.55
2022-11-24T14:56:20.944Z,2.92
2022-11-24T14:58:47.438Z,2.97
2022-11-24T15:01:29.533Z,2.50
2022-11-24T15:07:25.813Z,2.92
2022-11-24T15:09:58.435Z,2.72
2022-11-24T15:12:40.698Z,2.63
2022-11-24T15:15:22.573Z,2.72
2022-11-24T15:17:52.446Z,3.40
2022-11-24T15:20:43.154Z,2.65
2022-11-24T15:23:22.798Z,2.53
2022-11-24T15:26:11.814Z,2.50
2022-11-24T15:28:38.788Z,3.50
2022-11-24T15:31:09.586Z,2.95
2022-11-24T15:33:36.100Z,2.92
2022-11-24T15:36:02.562Z,2.92
2022-11-24T15:38:28.937Z,2.92
2022-11-24T15:40:58.260Z,4.03
2022-11-24T15:43:34.917Z,2.85
2022-11-24T15:46:02.725Z,2.67
2022-11-24T15:48:29.858Z,2.80
2022-11-24T15:50:57.946Z,3.70
2022-11-24T15:53:32.565Z,3.22
2022-11-24T15:56:01.563Z,2.80
2022-11-24T15:58:28.036Z,3.10
2022-11-24T16:00:54.698Z,3.13
2022-11-24T16:06:16.728Z,3.53
2022-11-24T16:08:45.827Z,3.78
2022-11-24T16:11:12.510Z,2.90
2022-11-24T16:13:38.965Z,2.83
2022-11-24T16:16:05.938Z,3.65
2022-11-24T16:18:32.479Z,3.80
2022-11-24T16:20:58.924Z,3.17
2022-11-24T16:23:25.354Z,2.92
2022-11-24T16:25:52.108Z,5.22
2022-11-24T16:28:20.404Z,3.80
2022-11-24T16:30:50.661Z,3.55
2022-11-24T16:33:17.480Z,3.13
2022-11-24T16:35:47.395Z,3.40
2022-11-24T16:38:20.102Z,3.50
2022-11-24T16:40:54.601Z,2.88
2022-11-24T16:43:21.298Z,3.22
2022-11-24T16:46:21.254Z,3.28
2022-11-24T16:48:50.008Z,3.30
2022-11-24T16:51:17.493Z,3.50
2022-11-24T16:53:44.000Z,3.08
2022-11-24T16:56:10.968Z,3.80
2022-11-24T16:58:39.057Z,3.42
2022-11-24T17:01:07.458Z,3.92
2022-11-24T17:03:37.406Z,3.35
2022-11-24T17:06:06.178Z,3.00
2022-11-24T17:08:34.820Z,2.80
2022-11-24T17:11:15.651Z,3.92
2022-11-24T17:13:43.062Z,3.83
2022-11-24T17:16:12.193Z,3.25
2022-11-24T17:18:39.099Z,3.47
2022-11-24T17:21:09.804Z,3.58
2022-11-24T17:23:37.110Z,3.63
2022-11-24T17:26:22.088Z,3.53
2022-11-24T17:28:48.794Z,3.63
2022-11-24T17:31:22.599Z,3.50
2022-11-24T17:33:50.362Z,3.72
2022-11-24T17:36:17.286Z,3.97
2022-11-24T17:38:43.730Z,4.15
2022-11-24T17:41:11.206Z,3.90
2022-11-24T17:43:37.731Z,4.13
2022-11-24T17:46:05.271Z,4.20
2022-11-24T17:48:32.561Z,4.07
2022-11-24T17:51:13.161Z,4.20
2022-11-24T17:53:41.809Z,3.85
2022-11-24T17:56:12.783Z,3.72
2022-11-24T17:58:42.846Z,3.50
2022-11-24T18:01:10.377Z,4.05
2022-11-24T18:03:38.608Z,3.92
2022-11-24T18:06:09.017Z,4.55
2022-11-24T18:08:37.240Z,3.75
2022-11-24T18:11:12.393Z,4.28
2022-11-24T18:16:28.016Z,3.63
2022-11-24T18:19:07.957Z,4.32
2022-11-24T18:21:35.132Z,3.17
2022-11-24T18:24:01.730Z,3.30
2022-11-24T18:26:28.121Z,4.32
2022-11-24T18:28:54.565Z,3.55
2022-11-24T18:31:22.191Z,2.92
2022-11-24T18:33:48.761Z,3.28
2022-11-24T18:36:18.326Z,3.08
2022-11-24T18:38:44.925Z,3.13
2022-11-24T18:41:13.944Z,3.53
2022-11-24T18:43:40.731Z,3.15
2022-11-24T18:46:17.632Z,3.50
2022-11-24T18:48:44.955Z,3.70
2022-11-24T18:51:15.013Z,3.10
2022-11-24T18:53:46.228Z,3.20
2022-11-24T18:56:16.729Z,3.20
2022-11-24T18:58:43.970Z,3.38
2022-11-24T19:01:15.996Z,2.92
2022-11-24T19:03:49.061Z,2.85
2022-11-24T19:06:24.379Z,3.95
2022-11-24T19:08:53.525Z,3.50
2022-11-24T19:11:23.219Z,2.53
2022-11-24T19:13:50.172Z,3.58
2022-11-24T19:16:18.477Z,4.00
2022-11-24T19:18:48.936Z,3.33
2022-11-24T19:21:19.739Z,3.60
2022-11-24T19:23:46.571Z,3.05
2022-11-24T19:26:13.158Z,3.25
2022-11-24T19:28:39.592Z,3.15
2022-11-24T19:31:10.247Z,3.47
2022-11-24T19:33:36.839Z,3.15
2022-11-24T19:36:14.950Z,2.92
2022-11-24T19:38:42.302Z,3.35
2022-11-24T19:41:11.330Z,2.90
2022-11-24T19:43:38.423Z,3.15
2022-11-24T19:46:13.028Z,3.25
2022-11-24T19:48:42.921Z,2.92
2022-11-24T19:51:32.905Z,3.40
2022-11-24T19:53:59.754Z,3.53
2022-11-24T19:56:28.540Z,3.70
2022-11-24T19:58:55.505Z,3.75
2022-11-24T20:01:27.083Z,3.40
2022-11-24T20:03:58.744Z,2.78
2022-11-24T20:06:31.122Z,3.25
2022-11-24T20:09:00.282Z,3.28
2022-11-24T20:11:27.931Z,3.22
2022-11-24T20:13:54.570Z,2.97
2022-11-24T20:16:28.089Z,2.92
2022-11-24T20:18:56.525Z,3.83
2022-11-24T20:21:25.400Z,3.08
2022-11-24T20:24:10.839Z,3.05
2022-11-24T20:26:41.844Z,2.88
2022-11-24T20:29:12.057Z,3.08
2022-11-24T20:31:44.881Z,3.08
2022-11-24T20:34:14.866Z,3.25
2022-11-24T20:36:43.330Z,3.08
2022-11-24T20:39:19.106Z,3.50
2022-11-24T20:41:45.554Z,3.15
2022-11-24T20:44:15.259Z,3.25
2022-11-24T20:46:43.843Z,3.17
2022-11-24T20:49:18.944Z,3.80
2022-11-24T20:51:47.570Z,2.95
2022-11-24T20:54:16.405Z,3.63
2022-11-24T20:56:44.292Z,3.55
2022-11-24T20:59:16.687Z,2.97
2022-11-24T21:01:45.497Z,3.28
2022-11-24T21:04:15.838Z,3.10
2022-11-24T21:06:42.313Z,3.15
2022-11-24T21:09:09.356Z,3.28
2022-11-24T21:11:36.904Z,2.97
2022-11-24T21:14:03.752Z,2.92
2022-11-24T21:16:32.414Z,2.65
2022-11-24T21:19:01.013Z,2.95
2022-11-24T21:21:33.851Z,3.83
2022-11-24T21:24:04.492Z,3.25
2022-11-24T21:26:30.945Z,3.35
2022-11-24T21:28:57.889Z,2.60
2022-11-24T21:31:24.475Z,2.75
2022-11-24T21:33:53.167Z,3.58
2022-11-24T21:36:23.688Z,3.45
2022-11-24T21:38:57.655Z,2.47
2022-11-24T21:41:26.079Z,2.95
2022-11-24T21:43:55.750Z,2.60
2022-11-24T21:46:22.574Z,2.75
2022-11-24T21:48:49.174Z,2.97
2022-11-24T21:51:17.770Z,3.20
2022-11-24T21:53:45.362Z,3.17
2022-11-24T21:56:17.182Z,3.05
2022-11-24T22:01:11.683Z,3.17
2022-11-24T22:03:38.245Z,2.47
2022-11-24T22:06:05.325Z,3.00
2022-11-24T22:08:32.021Z,3.28
2022-11-24T22:11:13.570Z,2.95
2022-11-24T22:13:40.948Z,3.35
2022-11-24T22:16:19.386Z,3.17
2022-11-24T22:18:46.650Z,2.55
2022-11-24T22:21:15.334Z,3.33
2022-11-24T22:23:42.765Z,2.60
2022-11-24T22:26:15.187Z,3.35
2022-11-24T22:28:42.851Z,2.80
2022-11-24T22:31:18.059Z,3.10
2022-11-24T22:33:44.912Z,2.65
2022-11-24T22:36:13.111Z,2.67
2022-11-24T22:38:40.511Z,3.53
2022-11-24T22:41:10.024Z,3.08
2022-11-24T22:43:38.962Z,3.33
2022-11-24T22:46:11.110Z,3.25
2022-11-24T22:48:38.384Z,2.97
2022-11-24T22:51:09.353Z,3.00
2022-11-24T22:53:35.786Z,4.23
2022-11-24T22:56:10.931Z,3.75
2022-11-24T22:58:38.426Z,2.72
2022-11-24T23:01:11.317Z,2.92
2022-11-24T23:03:39.015Z,3.17
2022-11-24T23:06:12.334Z,2.85
2022-11-24T23:08:39.293Z,3.65
2022-11-24T23:11:37.654Z,3.17
2022-11-24T23:14:07.165Z,3.30
2022-11-24T23:16:33.668Z,2.95
2022-11-24T23:19:00.143Z,3.40
2022-11-24T23:21:32.081Z,2.90
2022-11-24T23:24:01.330Z,3.13
2022-11-24T23:26:30.564Z,2.92
2022-11-24T23:28:57.735Z,3.05
2022-11-24T23:31:29.485Z,3.08
2022-11-24T23:36:23.913Z,3.22
2022-11-24T23:38:50.454Z,3.08
2022-11-24T23:41:22.246Z,2.97
2022-11-24T23:46:20.244Z,3.08
2022-11-24T23:48:47.552Z,2.72
2022-11-24T23:51:18.394Z,3.50
2022-11-24T23:53:45.674Z,3.07
2022-11-24T23:56:14.615Z,3.25
2022-11-24T23:58:41.438Z,3.35
